createdAt,value
2024-04-06T00:00:17.977Z,136.27
2024-04-06T00:01:17.993Z,133.68
2024-04-06T00:02:18.030Z,134.14
2024-04-06T00:03:18.056Z,135.81
2024-04-06T00:04:18.069Z,133.11
2024-04-06T00:05:18.066Z,136.57
2024-04-06T00:06:18.098Z,133.51
2024-04-06T00:07:18.128Z,133.94
2024-04-06T00:08:18.391Z,135.05
2024-04-06T00:09:18.208Z,134.06
2024-04-06T00:10:18.170Z,134.11
2024-04-06T00:11:18.206Z,134.88
2024-04-06T00:12:18.201Z,136.05
2024-04-06T00:13:18.216Z,134.63
2024-04-06T00:14:18.227Z,135.70
2024-04-06T00:15:18.287Z,135.12
2024-04-06T00:16:18.312Z,134.77
2024-04-06T00:17:18.317Z,134.63
2024-04-06T00:18:18.322Z,133.25
2024-04-06T00:19:18.711Z,133.27
2024-04-06T00:20:18.381Z,134.40
2024-04-06T00:21:18.378Z,134.72
2024-04-06T00:22:18.441Z,133.75
2024-04-06T00:23:18.420Z,134.07
2024-04-06T00:24:18.459Z,133.62
2024-04-06T00:25:18.476Z,134.38
2024-04-06T00:26:18.504Z,134.39
2024-04-06T00:27:18.523Z,133.81
2024-04-06T00:28:18.533Z,135.45
2024-04-06T00:29:18.698Z,135.40
2024-04-06T00:30:18.552Z,133.21
2024-04-06T00:31:18.557Z,133.72
2024-04-06T00:32:18.594Z,132.76
2024-04-06T00:33:18.612Z,133.88
2024-04-06T00:34:18.724Z,132.13
2024-04-06T00:35:18.646Z,133.71
2024-04-06T00:36:18.654Z,129.84
2024-04-06T00:37:18.661Z,131.29
2024-04-06T00:38:18.664Z,131.95
2024-04-06T00:39:18.713Z,130.64
2024-04-06T00:40:18.692Z,130.93
2024-04-06T00:41:18.699Z,129.39
2024-04-06T00:42:18.724Z,130.21
2024-04-06T00:43:18.729Z,130.38
2024-04-06T00:44:18.787Z,129.73
2024-04-06T00:45:18.776Z,130.38
2024-04-06T00:46:18.812Z,129.85
2024-04-06T00:47:18.832Z,131.77
2024-04-06T00:48:18.837Z,130.47
2024-04-06T00:49:19.301Z,130.94
2024-04-06T00:50:18.891Z,130.11
2024-04-06T00:51:18.899Z,131.23
2024-04-06T00:52:18.897Z,130.29
2024-04-06T00:53:18.948Z,129.40
2024-04-06T00:54:19.232Z,130.31
2024-04-06T00:55:18.959Z,131.54
2024-04-06T00:56:18.999Z,129.09
2024-04-06T00:57:18.997Z,128.31
2024-04-06T00:58:19.047Z,128.99
2024-04-06T00:59:19.085Z,129.40
2024-04-06T01:00:19.096Z,128.79
2024-04-06T01:01:21.362Z,128.44
2024-04-06T01:02:19.046Z,129.12
2024-04-06T01:03:19.019Z,129.70
2024-04-06T01:04:18.986Z,128.41
2024-04-06T01:05:18.944Z,128.11
2024-04-06T01:06:18.876Z,127.17
2024-04-06T01:07:18.830Z,129.37
2024-04-06T01:08:18.781Z,129.56
2024-04-06T01:09:18.749Z,129.82
2024-04-06T01:10:18.693Z,128.53
2024-04-06T01:11:18.717Z,128.30
2024-04-06T01:12:18.591Z,126.48
2024-04-06T01:13:18.567Z,125.33
2024-04-06T01:14:18.518Z,127.08
2024-04-06T01:15:18.443Z,126.97
2024-04-06T01:16:18.419Z,125.34
2024-04-06T01:17:18.386Z,126.04
2024-04-06T01:18:18.337Z,123.98
2024-04-06T01:19:18.266Z,126.40
2024-04-06T01:20:18.251Z,126.09
2024-04-06T01:21:18.230Z,125.06
2024-04-06T01:22:18.129Z,125.66
2024-04-06T01:23:18.093Z,125.56
2024-04-06T01:24:18.070Z,125.27
2024-04-06T01:25:17.997Z,127.11
2024-04-06T01:26:17.980Z,124.33
2024-04-06T01:27:17.986Z,124.14
2024-04-06T01:28:18.007Z,125.76
2024-04-06T01:29:18.227Z,124.60
2024-04-06T01:30:18.033Z,125.16
2024-04-06T01:31:18.041Z,125.23
2024-04-06T01:32:18.087Z,124.73
2024-04-06T01:33:18.063Z,126.16
2024-04-06T01:34:18.169Z,126.00
2024-04-06T01:35:18.157Z,126.67
2024-04-06T01:36:18.171Z,124.99
2024-04-06T01:37:18.173Z,126.54
2024-04-06T01:38:18.185Z,125.32
2024-04-06T01:39:18.204Z,128.55
2024-04-06T01:40:18.220Z,126.65
2024-04-06T01:41:18.231Z,125.86
2024-04-06T01:42:18.233Z,128.29
2024-04-06T01:43:18.227Z,124.78
2024-04-06T01:44:18.260Z,127.14
2024-04-06T01:45:18.238Z,126.34
2024-04-06T01:46:18.266Z,127.63
2024-04-06T01:47:18.286Z,125.18
2024-04-06T01:48:18.301Z,126.47
2024-04-06T01:49:18.358Z,125.20
2024-04-06T01:50:18.312Z,124.68
2024-04-06T01:51:18.324Z,124.85
2024-04-06T01:52:18.340Z,125.93
2024-04-06T01:53:18.380Z,126.81
2024-04-06T01:54:18.757Z,128.07
2024-04-06T01:55:18.325Z,124.00
2024-04-06T01:56:18.351Z,126.08
2024-04-06T01:57:18.334Z,125.60
2024-04-06T01:58:18.379Z,123.38
2024-04-06T01:59:18.732Z,122.66
2024-04-06T02:00:18.368Z,123.41
2024-04-06T02:01:18.404Z,123.68
2024-04-06T02:02:18.406Z,124.64
2024-04-06T02:03:18.409Z,122.08
2024-04-06T02:04:18.387Z,122.94
2024-04-06T02:05:18.366Z,127.25
2024-04-06T02:06:18.323Z,124.01
2024-04-06T02:07:18.353Z,124.92
2024-04-06T02:08:18.284Z,123.12
2024-04-06T02:09:18.876Z,125.04
2024-04-06T02:10:18.248Z,125.58
2024-04-06T02:11:18.265Z,124.55
2024-04-06T02:12:18.264Z,122.83
2024-04-06T02:13:18.221Z,123.30
2024-04-06T02:14:18.274Z,125.09
2024-04-06T02:15:18.214Z,123.92
2024-04-06T02:16:18.175Z,123.71
2024-04-06T02:17:18.148Z,122.45
2024-04-06T02:18:18.146Z,122.25
2024-04-06T02:19:18.123Z,124.02
2024-04-06T02:20:18.164Z,124.18
2024-04-06T02:21:18.095Z,123.88
2024-04-06T02:22:18.110Z,122.04
2024-04-06T02:23:18.084Z,121.72
2024-04-06T02:24:18.081Z,122.03
2024-04-06T02:25:18.032Z,122.18
2024-04-06T02:26:18.034Z,122.35
2024-04-06T02:27:18.008Z,123.70
2024-04-06T02:28:17.944Z,123.18
2024-04-06T02:29:17.955Z,123.86
2024-04-06T02:30:17.922Z,121.92
2024-04-06T02:31:17.901Z,124.67
2024-04-06T02:32:17.834Z,124.84
2024-04-06T02:33:17.856Z,123.36
2024-04-06T02:34:18.003Z,121.87
2024-04-06T02:35:18.796Z,123.60
2024-04-06T02:36:17.824Z,124.08
2024-04-06T02:37:18.785Z,124.13
2024-04-06T02:38:17.745Z,123.67
2024-04-06T02:39:17.673Z,123.92
2024-04-06T02:40:17.628Z,124.80
2024-04-06T02:41:17.585Z,124.82
2024-04-06T02:42:17.515Z,123.64
2024-04-06T02:43:17.463Z,123.91
2024-04-06T02:44:17.442Z,125.21
2024-04-06T02:45:17.412Z,124.26
2024-04-06T02:46:17.353Z,123.14
2024-04-06T02:47:17.323Z,123.45
2024-04-06T02:48:17.285Z,122.21
2024-04-06T02:49:17.272Z,123.16
2024-04-06T02:50:17.239Z,123.43
2024-04-06T02:51:17.252Z,123.81
2024-04-06T02:52:17.248Z,122.26
2024-04-06T02:53:17.238Z,122.63
2024-04-06T02:54:17.234Z,123.75
2024-04-06T02:55:17.187Z,121.72
2024-04-06T02:56:17.125Z,124.40
2024-04-06T02:57:17.129Z,122.66
2024-04-06T02:58:17.106Z,122.63
2024-04-06T02:59:17.101Z,123.42
2024-04-06T03:00:17.095Z,121.48
2024-04-06T03:01:17.116Z,123.75
2024-04-06T03:02:17.107Z,122.42
2024-04-06T03:03:17.128Z,122.62
2024-04-06T03:04:17.100Z,123.41
2024-04-06T03:05:17.059Z,121.92
2024-04-06T03:06:17.074Z,123.63
2024-04-06T03:07:17.045Z,124.10
2024-04-06T03:08:16.980Z,122.50
2024-04-06T03:09:16.964Z,121.56
2024-04-06T03:10:16.941Z,122.91
2024-04-06T03:11:16.904Z,124.60
2024-04-06T03:12:16.869Z,124.47
2024-04-06T03:13:16.814Z,122.03
2024-04-06T03:14:16.779Z,121.18
2024-04-06T03:15:17.748Z,121.27
2024-04-06T03:16:16.700Z,121.74
2024-04-06T03:17:16.631Z,121.79
2024-04-06T03:18:16.574Z,123.11
2024-04-06T03:19:16.548Z,124.04
2024-04-06T03:20:16.485Z,122.21
2024-04-06T03:21:16.471Z,122.46
2024-04-06T03:22:16.405Z,122.68
2024-04-06T03:23:16.396Z,124.12
2024-04-06T03:24:16.352Z,124.18
2024-04-06T03:25:16.317Z,123.29
2024-04-06T03:26:16.363Z,122.62
2024-04-06T03:27:16.374Z,124.38
2024-04-06T03:28:16.420Z,123.43
2024-04-06T03:29:16.410Z,123.29
2024-04-06T03:30:16.420Z,121.92
2024-04-06T03:31:16.388Z,123.10
2024-04-06T03:32:16.404Z,123.03
2024-04-06T03:33:16.404Z,121.32
2024-04-06T03:34:16.378Z,122.59
2024-04-06T03:35:16.369Z,122.42
2024-04-06T03:36:16.394Z,122.03
2024-04-06T03:37:16.435Z,121.89
2024-04-06T03:38:16.427Z,121.45
2024-04-06T03:39:16.446Z,122.14
2024-04-06T03:40:16.452Z,124.00
2024-04-06T03:41:16.399Z,121.02
2024-04-06T03:42:16.466Z,122.04
2024-04-06T03:43:16.433Z,122.28
2024-04-06T03:44:16.780Z,122.30
2024-04-06T03:45:16.480Z,122.54
2024-04-06T03:46:16.498Z,123.11
2024-04-06T03:47:16.521Z,121.92
2024-04-06T03:48:16.508Z,121.90
2024-04-06T03:49:16.818Z,121.55
2024-04-06T03:50:16.551Z,122.46
2024-04-06T03:51:16.535Z,123.10
2024-04-06T03:52:16.534Z,122.28
2024-04-06T03:53:16.536Z,121.28
2024-04-06T03:54:16.779Z,123.20
2024-04-06T03:55:16.575Z,121.36
2024-04-06T03:56:16.599Z,123.76
2024-04-06T03:57:16.565Z,122.46
2024-04-06T03:58:16.602Z,122.38
2024-04-06T03:59:16.612Z,122.75
2024-04-06T04:00:16.688Z,121.64
2024-04-06T04:01:16.689Z,122.18
2024-04-06T04:02:16.703Z,122.19
2024-04-06T04:03:16.709Z,122.04
2024-04-06T04:04:16.818Z,122.87
2024-04-06T04:05:16.754Z,123.25
2024-04-06T04:06:16.770Z,120.32
2024-04-06T04:07:16.739Z,122.29
2024-04-06T04:08:16.744Z,121.88
2024-04-06T04:09:16.786Z,121.83
2024-04-06T04:10:16.759Z,121.36
2024-04-06T04:11:16.800Z,122.65
2024-04-06T04:12:16.818Z,120.63
2024-04-06T04:13:16.815Z,121.55
2024-04-06T04:14:17.294Z,120.78
2024-04-06T04:15:16.844Z,122.56
2024-04-06T04:16:16.841Z,123.15
2024-04-06T04:17:16.817Z,122.56
2024-04-06T04:18:16.811Z,121.43
2024-04-06T04:19:16.825Z,120.52
2024-04-06T04:20:24.026Z,50.00
2024-04-06T04:21:24.007Z,50.00
2024-04-06T04:22:26.270Z,50.00
2024-04-06T04:23:24.021Z,50.00
2024-04-06T04:24:24.024Z,50.00
2024-04-06T04:25:24.024Z,50.00
2024-04-06T04:26:24.044Z,50.00
2024-04-06T04:27:24.042Z,50.00
2024-04-06T04:28:24.051Z,51.49
2024-04-06T04:29:24.059Z,50.00
2024-04-06T04:30:24.028Z,53.44
2024-04-06T04:31:31.251Z,50.00
2024-04-06T04:32:31.253Z,50.00
2024-04-06T04:33:31.237Z,50.00
2024-04-06T04:34:31.261Z,50.00
2024-04-06T04:35:31.311Z,50.00
2024-04-06T04:36:31.314Z,50.16
2024-04-06T04:37:31.312Z,51.16
2024-04-06T04:38:31.334Z,51.19
2024-04-06T04:39:31.332Z,51.46
2024-04-06T04:40:31.360Z,51.01
2024-04-06T04:41:31.357Z,50.73
2024-04-06T04:42:31.332Z,51.40
2024-04-06T04:43:31.356Z,50.98
2024-04-06T04:44:38.604Z,55.50
2024-04-06T04:45:32.352Z,53.73
2024-04-06T04:46:31.357Z,55.51
2024-04-06T04:47:31.405Z,53.74
2024-04-06T04:48:31.389Z,50.69
2024-04-06T04:49:31.400Z,50.19
2024-04-06T04:50:31.404Z,52.83
2024-04-06T04:51:31.385Z,51.61
2024-04-06T04:52:31.394Z,51.88
2024-04-06T04:53:31.413Z,51.72
2024-04-06T04:54:31.399Z,53.02
2024-04-06T04:55:31.381Z,51.98
2024-04-06T04:56:31.431Z,53.65
2024-04-06T04:57:31.422Z,51.70
2024-04-06T04:58:31.424Z,51.04
2024-04-06T04:59:31.478Z,51.30
2024-04-06T05:00:31.406Z,53.25
2024-04-06T05:01:31.452Z,50.56
2024-04-06T05:02:31.491Z,52.61
2024-04-06T05:03:31.430Z,51.13
2024-04-06T05:04:31.879Z,50.00
2024-04-06T05:05:31.440Z,51.40
2024-04-06T05:06:31.440Z,53.92
2024-04-06T05:07:31.471Z,53.97
2024-04-06T05:08:31.491Z,52.86
2024-04-06T05:09:31.534Z,50.25
2024-04-06T05:10:31.545Z,51.94
2024-04-06T05:11:31.645Z,51.52
2024-04-06T05:12:31.629Z,52.27
2024-04-06T05:13:31.662Z,50.59
2024-04-06T05:14:31.717Z,52.74
2024-04-06T05:15:31.690Z,51.64
2024-04-06T05:16:31.730Z,51.48
2024-04-06T05:17:31.837Z,51.72
2024-04-06T05:18:31.769Z,51.25
2024-04-06T05:19:31.872Z,50.34
2024-04-06T05:20:31.839Z,50.72
2024-04-06T05:21:31.901Z,51.44
2024-04-06T05:22:33.253Z,51.82
2024-04-06T05:23:32.015Z,52.71
2024-04-06T05:24:31.997Z,52.11
2024-04-06T05:25:31.991Z,51.31
2024-04-06T05:26:32.043Z,50.42
2024-04-06T05:27:32.032Z,53.99
2024-04-06T05:28:32.051Z,53.72
2024-04-06T05:29:32.117Z,54.32
2024-04-06T05:30:32.848Z,50.61
2024-04-06T05:31:32.167Z,51.70
2024-04-06T05:32:32.260Z,53.89
2024-04-06T05:33:32.227Z,53.28
2024-04-06T05:34:32.293Z,52.03
2024-04-06T05:35:32.332Z,53.45
2024-04-06T05:36:32.345Z,52.80
2024-04-06T05:37:32.377Z,51.91
2024-04-06T05:38:32.444Z,51.78
2024-04-06T05:39:32.870Z,51.23
2024-04-06T05:40:32.473Z,52.50
2024-04-06T05:41:32.526Z,52.69
2024-04-06T05:42:32.518Z,51.66
2024-04-06T05:43:32.565Z,50.62
2024-04-06T05:44:32.611Z,52.33
2024-04-06T05:45:32.647Z,51.93
2024-04-06T05:46:32.664Z,50.02
2024-04-06T05:47:32.835Z,53.82
2024-04-06T05:48:32.726Z,51.90
2024-04-06T05:49:32.817Z,52.47
2024-04-06T05:50:32.859Z,51.58
2024-04-06T05:51:32.863Z,53.04
2024-04-06T05:52:32.880Z,50.22
2024-04-06T05:53:32.942Z,54.81
2024-04-06T05:54:32.944Z,53.86
2024-04-06T05:55:33.059Z,54.12
2024-04-06T05:56:33.040Z,54.32
2024-04-06T05:57:33.063Z,54.15
2024-04-06T05:58:35.538Z,53.78
2024-04-06T05:59:33.359Z,52.13
2024-04-06T06:00:33.304Z,52.33
2024-04-06T06:01:33.308Z,52.11
2024-04-06T06:02:33.352Z,53.30
2024-04-06T06:03:33.409Z,53.02
2024-04-06T06:04:33.425Z,51.41
2024-04-06T06:05:33.465Z,53.43
2024-04-06T06:06:33.478Z,53.90
2024-04-06T06:07:33.512Z,52.68
2024-04-06T06:08:33.663Z,52.43
2024-04-06T06:09:33.890Z,54.50
2024-04-06T06:10:33.629Z,51.56
2024-04-06T06:11:33.695Z,52.30
2024-04-06T06:12:33.720Z,52.97
2024-04-06T06:13:33.721Z,52.41
2024-04-06T06:14:33.966Z,51.95
2024-04-06T06:15:33.816Z,52.04
2024-04-06T06:16:33.864Z,53.21
2024-04-06T06:17:33.928Z,53.15
2024-04-06T06:18:33.937Z,52.28
2024-04-06T06:19:34.399Z,52.41
2024-04-06T06:20:34.019Z,52.46
2024-04-06T06:21:34.057Z,50.82
2024-04-06T06:22:34.069Z,51.02
2024-04-06T06:23:34.168Z,52.23
2024-04-06T06:24:34.389Z,52.69
2024-04-06T06:25:34.194Z,53.24
2024-04-06T06:26:34.257Z,52.78
2024-04-06T06:27:34.264Z,51.41
2024-04-06T06:28:34.310Z,51.69
2024-04-06T06:29:34.415Z,50.80
2024-04-06T06:30:34.405Z,52.45
2024-04-06T06:31:35.006Z,50.00
2024-04-06T06:32:34.549Z,53.02
2024-04-06T06:33:34.515Z,53.77
2024-04-06T06:34:34.562Z,53.56
2024-04-06T06:41:34.646Z,51.66
2024-04-06T06:42:34.642Z,52.28
2024-04-06T06:43:34.650Z,52.54
2024-04-06T06:44:34.806Z,54.26
2024-04-06T06:45:34.684Z,55.44
2024-04-06T06:46:34.691Z,53.79
2024-04-06T06:47:34.718Z,52.86
2024-04-06T06:48:34.703Z,53.21
2024-04-06T06:49:34.715Z,52.50
2024-04-06T06:50:34.712Z,51.42
2024-04-06T06:51:34.699Z,51.31
2024-04-06T06:52:34.709Z,54.32
2024-04-06T06:53:34.754Z,53.82
2024-04-06T06:54:34.747Z,53.31
2024-04-06T06:55:34.806Z,52.24
2024-04-06T06:56:34.767Z,51.67
2024-04-06T06:57:34.763Z,51.15
2024-04-06T06:58:34.768Z,53.86
2024-04-06T07:00:34.791Z,52.03
2024-04-06T07:01:34.964Z,52.12
2024-04-06T07:02:34.810Z,51.56
2024-04-06T07:03:34.801Z,51.78
2024-04-06T07:04:34.813Z,51.02
2024-04-06T07:05:34.823Z,52.17
2024-04-06T07:07:34.829Z,53.77
2024-04-06T07:08:34.839Z,53.39
2024-04-06T07:09:34.810Z,53.92
2024-04-06T07:10:34.845Z,53.32
2024-04-06T07:11:34.861Z,53.60
2024-04-06T07:12:34.868Z,52.75
2024-04-06T07:13:34.861Z,51.74
2024-04-06T07:14:34.856Z,52.89
2024-04-06T07:15:34.886Z,53.16
2024-04-06T07:16:34.845Z,51.68
2024-04-06T07:17:34.883Z,52.53
2024-04-06T07:18:34.906Z,52.62
2024-04-06T07:19:34.927Z,50.04
2024-04-06T07:20:34.932Z,54.82
2024-04-06T07:21:34.926Z,50.96
2024-04-06T07:22:34.933Z,50.93
2024-04-06T07:23:34.939Z,51.31
2024-04-06T07:24:34.949Z,51.67
2024-04-06T07:25:34.959Z,51.56
2024-04-06T07:26:34.951Z,51.03
2024-04-06T07:27:34.979Z,50.97
2024-04-06T07:28:34.938Z,50.85
2024-04-06T07:29:34.987Z,50.91
2024-04-06T07:30:34.981Z,50.86
2024-04-06T07:31:34.949Z,53.92
2024-04-06T07:32:34.960Z,51.28
2024-04-06T07:33:34.962Z,52.22
2024-04-06T07:34:34.968Z,51.54
2024-04-06T07:35:34.983Z,52.96
2024-04-06T07:36:34.948Z,51.97
2024-04-06T07:37:34.994Z,52.44
2024-04-06T07:39:19.707Z,50.24
2024-04-06T07:39:35.970Z,50.35
2024-04-06T07:40:34.991Z,50.98
2024-04-06T07:41:34.993Z,51.11
2024-04-06T07:42:35.023Z,51.20
2024-04-06T07:43:35.003Z,51.21
2024-04-06T07:44:35.015Z,52.63
2024-04-06T07:45:35.015Z,52.89
2024-04-06T07:46:35.025Z,50.68
2024-04-06T07:47:35.033Z,52.78
2024-04-06T07:48:35.070Z,50.56
2024-04-06T07:49:35.078Z,51.51
2024-04-06T07:50:35.083Z,51.54
2024-04-06T07:51:35.057Z,53.21
2024-04-06T07:52:35.070Z,50.78
2024-04-06T07:53:35.075Z,51.56
2024-04-06T07:54:35.093Z,50.15
2024-04-06T07:55:35.126Z,51.14
2024-04-06T07:56:35.100Z,51.44
2024-04-06T07:57:35.104Z,52.49
2024-04-06T07:58:35.148Z,51.79
2024-04-06T07:59:35.112Z,52.87
2024-04-06T08:00:35.432Z,51.88
2024-04-06T08:01:35.190Z,50.95
2024-04-06T08:02:35.214Z,52.27
2024-04-06T08:03:35.247Z,54.49
2024-04-06T08:04:35.276Z,51.72
2024-04-06T08:05:35.324Z,52.39
2024-04-06T08:06:35.347Z,53.49
2024-04-06T08:07:35.377Z,50.71
2024-04-06T08:08:35.419Z,51.49
2024-04-06T08:09:35.455Z,52.24
2024-04-06T08:10:35.514Z,53.41
2024-04-06T08:11:35.521Z,51.07
2024-04-06T08:12:35.556Z,53.75
2024-04-06T08:13:35.596Z,52.53
2024-04-06T08:14:35.596Z,52.99
2024-04-06T08:15:35.917Z,52.20
2024-04-06T08:16:35.669Z,50.84
2024-04-06T08:17:35.736Z,52.38
2024-04-06T08:18:35.760Z,50.39
2024-04-06T08:19:35.795Z,52.35
2024-04-06T08:20:35.827Z,51.95
2024-04-06T08:21:35.849Z,50.99
2024-04-06T08:22:35.863Z,50.20
2024-04-06T08:23:35.897Z,51.78
2024-04-06T08:24:35.962Z,50.00
2024-04-06T08:25:35.986Z,53.16
2024-04-06T08:26:36.055Z,51.51
2024-04-06T08:27:36.915Z,52.39
2024-04-06T08:28:36.093Z,53.30
2024-04-06T08:29:36.168Z,51.03
2024-04-06T08:30:36.421Z,51.77
2024-04-06T08:31:36.191Z,52.31
2024-04-06T08:32:36.321Z,53.06
2024-04-06T08:33:36.291Z,52.66
2024-04-06T08:34:36.335Z,52.85
2024-04-06T08:35:36.386Z,53.71
2024-04-06T08:36:36.463Z,51.31
2024-04-06T08:37:36.441Z,54.57
2024-04-06T08:38:36.494Z,53.72
2024-04-06T08:39:36.535Z,51.76
2024-04-06T08:40:36.922Z,51.61
2024-04-06T08:41:37.410Z,52.32
2024-04-06T08:42:36.602Z,52.62
2024-04-06T08:43:36.650Z,52.42
2024-04-06T08:44:36.684Z,50.75
2024-04-06T08:45:36.702Z,50.16
2024-04-06T08:46:36.756Z,53.43
2024-04-06T08:47:36.795Z,52.50
2024-04-06T08:48:36.823Z,53.16
2024-04-06T08:49:36.827Z,53.07
2024-04-06T08:50:36.930Z,53.13
2024-04-06T08:51:36.908Z,53.64
2024-04-06T08:52:36.951Z,51.26
2024-04-06T08:53:37.013Z,53.63
2024-04-06T08:54:37.077Z,53.35
2024-04-06T08:55:37.424Z,53.26
2024-04-06T08:56:37.112Z,53.85
2024-04-06T08:57:37.107Z,53.98
2024-04-06T08:58:37.233Z,52.79
2024-04-06T08:59:37.289Z,54.55
2024-04-06T09:00:37.236Z,55.28
2024-04-06T09:01:37.323Z,51.24
2024-04-06T09:02:37.276Z,53.52
2024-04-06T09:03:37.356Z,53.51
2024-04-06T09:04:37.353Z,51.17
2024-04-06T09:05:37.390Z,51.13
2024-04-06T09:06:37.463Z,52.05
2024-04-06T09:07:37.458Z,51.30
2024-04-06T09:08:37.515Z,53.27
2024-04-06T09:09:37.537Z,51.65
2024-04-06T09:10:37.958Z,51.16
2024-04-06T09:11:37.585Z,51.43
2024-04-06T09:12:37.614Z,52.03
2024-04-06T09:13:37.650Z,51.75
2024-04-06T09:14:37.675Z,51.24
2024-04-06T09:15:37.760Z,53.30
2024-04-06T09:16:37.790Z,51.53
2024-04-06T09:17:37.807Z,52.68
2024-04-06T09:18:37.860Z,52.62
2024-04-06T09:19:37.902Z,53.04
2024-04-06T09:20:37.909Z,53.25
2024-04-06T09:21:37.982Z,52.43
2024-04-06T09:22:37.995Z,52.55
2024-04-06T09:23:38.106Z,55.12
2024-04-06T09:24:38.044Z,50.55
2024-04-06T09:25:38.153Z,52.46
2024-04-06T09:26:38.147Z,51.93
2024-04-06T09:27:38.177Z,53.50
2024-04-06T09:28:38.241Z,51.23
2024-04-06T09:29:38.278Z,50.78
2024-04-06T09:30:38.312Z,51.94
2024-04-06T09:31:38.366Z,52.35
2024-04-06T09:32:38.417Z,52.17
2024-04-06T09:33:38.426Z,52.79
2024-04-06T09:34:38.456Z,51.74
2024-04-06T09:35:38.937Z,51.51
2024-04-06T09:36:38.548Z,52.37
2024-04-06T09:37:38.561Z,52.74
2024-04-06T09:38:38.592Z,53.23
2024-04-06T09:39:38.654Z,51.03
2024-04-06T09:40:38.729Z,52.13
2024-04-06T09:41:38.711Z,52.57
2024-04-06T09:42:38.790Z,51.92
2024-04-06T09:43:38.783Z,51.05
2024-04-06T09:44:38.842Z,54.29
2024-04-06T09:45:38.998Z,51.47
2024-04-06T09:46:39.042Z,52.29
2024-04-06T09:47:38.958Z,54.37
2024-04-06T09:48:38.992Z,51.45
2024-04-06T09:49:39.042Z,52.98
2024-04-06T09:50:39.437Z,52.78
2024-04-06T09:51:39.122Z,52.48
2024-04-06T09:52:39.136Z,51.98
2024-04-06T09:53:39.186Z,53.40
2024-04-06T09:54:39.249Z,53.29
2024-04-06T09:55:39.278Z,51.75
2024-04-06T09:56:39.284Z,53.21
2024-04-06T09:57:39.365Z,51.73
2024-04-06T09:58:39.394Z,52.19
2024-04-06T09:59:39.422Z,52.06
2024-04-06T10:00:39.479Z,51.58
2024-04-06T10:01:39.523Z,53.03
2024-04-06T10:02:39.529Z,53.35
2024-04-06T10:03:39.602Z,52.10
2024-04-06T10:04:39.643Z,51.09
2024-04-06T10:05:39.656Z,51.87
2024-04-06T10:06:39.680Z,50.08
2024-04-06T10:07:39.739Z,53.36
2024-04-06T10:08:39.767Z,51.42
2024-04-06T10:09:39.911Z,53.75
2024-04-06T10:10:39.950Z,53.27
2024-04-06T10:11:39.893Z,53.07
2024-04-06T10:12:39.973Z,52.54
2024-04-06T10:13:39.963Z,52.06
2024-04-06T10:14:40.038Z,50.59
2024-04-06T10:15:40.048Z,51.47
2024-04-06T10:16:40.101Z,52.37
2024-04-06T10:17:40.147Z,51.66
2024-04-06T10:18:40.172Z,51.46
2024-04-06T10:19:40.181Z,52.07
2024-04-06T10:20:40.277Z,51.66
2024-04-06T10:21:40.274Z,52.47
2024-04-06T10:22:40.320Z,51.74
2024-04-06T10:23:40.357Z,51.76
2024-04-06T10:24:40.410Z,52.85
2024-04-06T10:25:40.980Z,51.38
2024-04-06T10:26:40.475Z,53.20
2024-04-06T10:27:40.518Z,51.89
2024-04-06T10:28:40.574Z,51.95
2024-04-06T10:29:40.607Z,50.75
2024-04-06T10:30:40.695Z,53.54
2024-04-06T10:31:46.383Z,52.16
2024-04-06T10:32:41.684Z,52.21
2024-04-06T10:33:41.490Z,52.77
2024-04-06T10:34:49.672Z,53.04
2024-04-06T10:35:41.711Z,52.26
2024-04-06T10:36:40.717Z,52.43
2024-04-06T10:37:40.761Z,52.59
2024-04-06T10:38:40.691Z,51.99
2024-04-06T10:39:40.721Z,53.59
2024-04-06T10:40:40.721Z,52.38
2024-04-06T10:41:40.715Z,50.00
2024-04-06T10:42:40.749Z,54.86
2024-04-06T10:43:40.742Z,54.29
2024-04-06T10:44:40.744Z,51.49
2024-04-06T10:45:40.979Z,52.24
2024-04-06T10:46:40.786Z,51.51
2024-04-06T10:47:40.782Z,52.11
2024-04-06T10:48:40.757Z,54.45
2024-04-06T10:49:40.796Z,54.13
2024-04-06T10:50:40.801Z,51.40
2024-04-06T10:51:40.779Z,51.81
2024-04-06T10:52:40.793Z,51.22
2024-04-06T10:53:40.879Z,51.40
2024-04-06T10:54:40.870Z,52.73
2024-04-06T10:55:40.984Z,53.09
2024-04-06T10:56:40.939Z,51.00
2024-04-06T10:57:40.947Z,53.18
2024-04-06T10:58:40.968Z,53.28
2024-04-06T10:59:41.020Z,51.51
2024-04-06T11:00:41.466Z,51.55
2024-04-06T11:01:41.051Z,50.33
2024-04-06T11:02:41.102Z,53.38
2024-04-06T11:03:41.096Z,51.59
2024-04-06T11:04:41.174Z,50.56
2024-04-06T11:05:41.159Z,52.87
2024-04-06T11:06:41.209Z,52.79
2024-04-06T11:07:41.210Z,51.21
2024-04-06T11:08:41.226Z,53.20
2024-04-06T11:09:41.252Z,51.63
2024-04-06T11:10:41.512Z,50.95
2024-04-06T11:11:41.313Z,51.41
2024-04-06T11:12:41.354Z,50.66
2024-04-06T11:13:41.377Z,52.92
2024-04-06T11:14:41.415Z,52.27
2024-04-06T11:15:41.471Z,53.66
2024-04-06T11:16:41.491Z,54.83
2024-04-06T11:17:41.486Z,52.79
2024-04-06T11:18:42.254Z,53.38
2024-04-06T11:19:41.577Z,52.27
2024-04-06T11:20:41.981Z,52.67
2024-04-06T11:21:41.625Z,53.41
2024-04-06T11:22:41.628Z,53.93
2024-04-06T11:23:41.655Z,51.98
2024-04-06T11:24:41.682Z,52.53
2024-04-06T11:25:41.976Z,50.54
2024-04-06T11:26:41.729Z,52.31
2024-04-06T11:27:41.774Z,51.93
2024-04-06T11:28:41.817Z,53.63
2024-04-06T11:29:41.790Z,53.69
2024-04-06T11:30:42.008Z,55.31
2024-04-06T11:31:41.876Z,55.44
2024-04-06T11:32:41.907Z,53.00
2024-04-06T11:33:41.908Z,51.66
2024-04-06T11:34:41.929Z,51.29
2024-04-06T11:35:41.990Z,53.29
2024-04-06T11:36:41.989Z,53.25
2024-04-06T11:37:42.030Z,53.45
2024-04-06T11:38:42.056Z,53.49
2024-04-06T11:39:42.059Z,53.34
2024-04-06T11:40:43.997Z,52.17
2024-04-06T11:41:42.115Z,53.23
2024-04-06T11:42:42.157Z,52.68
2024-04-06T11:43:42.146Z,53.28
2024-04-06T11:44:42.181Z,52.27
2024-04-06T11:45:42.215Z,52.39
2024-04-06T11:46:42.247Z,52.67
2024-04-06T11:47:42.284Z,53.10
2024-04-06T11:48:42.333Z,52.58
2024-04-06T11:49:42.344Z,52.40
2024-04-06T11:50:42.522Z,54.21
2024-04-06T11:51:42.354Z,52.87
2024-04-06T11:52:42.414Z,53.13
2024-04-06T11:53:46.137Z,52.97
2024-04-06T11:54:43.388Z,53.04
2024-04-06T11:55:42.515Z,50.21
2024-04-06T11:56:42.448Z,52.20
2024-04-06T11:57:42.429Z,53.52
2024-04-06T11:58:42.441Z,53.83
2024-04-06T11:59:42.435Z,54.34
2024-04-06T12:00:42.449Z,52.26
2024-04-06T12:01:42.450Z,54.33
2024-04-06T12:02:42.431Z,54.25
2024-04-06T12:03:42.467Z,52.96
2024-04-06T12:04:42.452Z,55.86
2024-04-06T12:05:42.449Z,55.06
2024-04-06T12:06:42.486Z,55.50
2024-04-06T12:07:42.426Z,55.58
2024-04-06T12:08:42.458Z,56.80
2024-04-06T12:09:42.427Z,55.25
2024-04-06T12:10:42.459Z,56.07
2024-04-06T12:11:42.465Z,55.80
2024-04-06T12:12:42.484Z,52.25
2024-04-06T12:13:42.470Z,55.03
2024-04-06T12:14:42.475Z,54.00
2024-04-06T12:15:42.459Z,56.56
2024-04-06T12:16:42.478Z,57.44
2024-04-06T12:17:42.456Z,56.12
2024-04-06T12:18:42.466Z,60.04
2024-04-06T12:19:42.454Z,57.89
2024-04-06T12:20:42.435Z,57.66
2024-04-06T12:21:42.465Z,59.56
2024-04-06T12:22:42.458Z,59.02
2024-04-06T12:23:42.535Z,57.47
2024-04-06T12:24:42.498Z,60.73
2024-04-06T12:25:42.543Z,59.72
2024-04-06T12:26:42.563Z,59.65
2024-04-06T12:27:42.562Z,61.68
2024-04-06T12:28:42.579Z,57.94
2024-04-06T12:29:42.579Z,58.52
2024-04-06T12:30:42.998Z,58.01
2024-04-06T12:31:42.618Z,58.45
2024-04-06T12:32:42.634Z,58.29
2024-04-06T12:33:42.645Z,58.72
2024-04-06T12:34:42.656Z,59.41
2024-04-06T12:35:43.002Z,58.40
2024-04-06T12:36:42.670Z,58.51
2024-04-06T12:37:42.711Z,60.96
2024-04-06T12:38:42.718Z,60.29
2024-04-06T12:39:42.754Z,60.68
2024-04-06T12:40:42.754Z,60.25
2024-04-06T12:41:42.764Z,60.17
2024-04-06T12:42:42.783Z,63.56
2024-04-06T12:43:42.769Z,61.80
2024-04-06T12:44:42.783Z,62.71
2024-04-06T12:45:43.027Z,62.12
2024-04-06T12:46:42.814Z,62.16
2024-04-06T12:47:42.856Z,60.65
2024-04-06T12:48:42.872Z,63.63
2024-04-06T12:49:42.857Z,63.38
2024-04-06T12:50:43.027Z,63.66
2024-04-06T12:51:42.896Z,64.07
2024-04-06T12:52:42.940Z,65.10